METAR Data
IDs: Format: Raw Decoded Include TAF

Data at: 1434 UTC 21 May 2019

KEST 211422Z AUTO 10021G28KT 10SM BKN028 OVC060 09/06 A2995 RMK AO2 PK WND 10028/1421 RAB1356E07 P0000 T00890056
KEST 211352Z AUTO 09014KT 10SM OVC055 09/06 A2996 RMK AO2 RAB35E48 SLP151 P0000 T00890056
KEST 211252Z AUTO 08013KT 10SM BKN060 OVC070 08/05 A2997 RMK AO2 SLP151 T00830050
KEST 211152Z AUTO 08011KT 10SM FEW055 OVC080 08/05 A2998 RMK AO2 SLP156 T00780050 10083 20072 58006
KEST 211052Z AUTO 07012KT 10SM BKN100 OVC120 08/05 A3000 RMK AO2 SLP161 T00780050
KEST 210952Z AUTO 07008KT 10SM SCT100 07/05 A3002 RMK AO2 SLP169 T00720050
KEST 210852Z AUTO 08010KT 10SM CLR 07/05 A3000 RMK AO2 SLP162 T00720050 58018
KEST 210752Z AUTO 08008KT 10SM CLR 08/05 A3003 RMK AO2 SLP173 T00780050
KEST 210652Z AUTO 08009KT 10SM CLR 08/05 A3003 RMK AO2 SLP174 T00830050
KEST 210552Z AUTO 08009KT 10SM CLR 08/05 A3005 RMK AO2 SLP180 T00830050 10122 20072 401390011 56008
KEST 210452Z AUTO 07008KT 10SM CLR 08/05 A3006 RMK AO2 SLP183 T00780050
KEST 210352Z AUTO 08008KT 10SM CLR 08/05 A3006 RMK AO2 SLP184 T00830050
KEST 210252Z AUTO 10008KT 10SM CLR 10/04 A3008 RMK AO2 SLP189 T01000044 55004
KEST 210152Z AUTO 09010KT 10SM CLR 10/04 A3005 RMK AO2 SLP181 T01000044
KEST 210052Z AUTO 08010KT 10SM CLR 12/04 A3005 RMK AO2 SLP183 T01170039
KEST 202352Z AUTO 09008KT 10SM CLR 12/03 A3009 RMK AO2 SLP195 T01220033 10139 20117 57012
KEST 202252Z AUTO 09011KT 10SM CLR 13/03 A3010 RMK AO2 SLP201 T01280028
KEST 202152Z AUTO 09011KT 10SM CLR 13/03 A3011 RMK AO2 SLP203 T01330028
KEST 202052Z AUTO 06008G16KT 10SM FEW047 13/03 A3012 RMK AO2 SLP208 T01330028 56008
KEST 201952Z AUTO 07009KT 10SM SCT045 13/03 A3013 RMK AO2 SLP209 T01330033
KEST 201852Z AUTO 05011G18KT 10SM BKN041 13/04 A3014 RMK AO2 SLP212 T01280039
KEST 201752Z AUTO 04012G17KT 10SM SCT038 12/04 A3015 RMK AO2 SLP216 T01220039 10122 20022 56010
KEST 201652Z AUTO 35009G17KT 10SM FEW029 11/04 A3016 RMK AO2 SLP219 T01110044
KEST 201552Z AUTO 36009KT 10SM CLR 10/04 A3016 RMK AO2 SLP220 T01000039
KEST 201452Z AUTO 33005KT 10SM CLR 08/03 A3018 RMK AO2 PRESRR SLP228 T00830033 53007
KEST 201352Z AUTO 35007KT 10SM CLR 07/03 A3016 RMK AO2 SLP223 T00670028
KEST 201252Z AUTO 32008KT 10SM CLR 04/02 A3017 RMK AO2 SLP226 T00440022
KEST 201152Z AUTO 33007KT 10SM CLR 02/01 A3016 RMK AO2 SLP224 70009 T00220011 10033 20011 53021
KEST 201052Z AUTO 32006KT 10SM CLR 01/01 A3014 RMK AO2 SLP216 T00110006
KEST 200952Z AUTO 32007KT 10SM CLR 01/01 A3010 RMK AO2 SLP204 T00110006
KEST 200852Z AUTO 33007KT 10SM CLR 01/01 A3009 RMK AO2 SLP201 T00110006 53006
KEST 200752Z AUTO 31004KT 10SM CLR 02/01 A3008 RMK AO2 SLP196 T00170006
KEST 200652Z AUTO 01005KT 10SM CLR 02/01 A3007 RMK AO2 SLP194 T00170006
KEST 200638Z AUTO 01006KT 10SM SCT017 02/01 A3007 RMK AO2 T00220006
KEST 200552Z AUTO 01012KT 10SM OVC018 03/01 A3007 RMK AO2 SLP193 60000 T00330011 10056 20033 400940033 53025
KEST 200452Z AUTO 01016KT 10SM OVC021 03/01 A3004 RMK AO2 SLP180 T00330011
KEST 200352Z AUTO 01012KT 10SM OVC019 03/02 A3003 RMK AO2 SLP178 T00330017
KEST 200252Z AUTO 01017KT 10SM FEW014 OVC023 03/01 A3000 RMK AO2 RAE0158 SLP167 P0000 60000 T00330011 51039